sensor_id;sensor_type;location;lat;lon;timestamp;pressure;altitude;pressure_sealevel;temperature;humidity
28432;BME280;15664;51.302;7.744;2023-03-26T00:01:05;83493.25;;;-146.98;100.00
28432;BME280;15664;51.302;7.744;2023-03-26T00:03:33;83466.75;;;-146.98;100.00
28432;BME280;15664;51.302;7.744;2023-03-26T00:06:07;83428.06;;;-146.98;100.00
28432;BME280;15664;51.302;7.744;2023-03-26T00:08:34;83462.69;;;-146.98;100.00
28432;BME280;15664;51.302;7.744;2023-03-26T00:11:00;83466.75;;;-146.98;100.00
28432;BME280;15664;51.302;7.744;2023-03-26T00:13:26;83476.94;;;-146.98;100.00
28432;BME280;15664;51.302;7.744;2023-03-26T00:15:52;83434.19;;;-146.98;100.00
28432;BME280;15664;51.302;7.744;2023-03-26T00:18:19;83458.63;;;-146.98;100.00
28432;BME280;15664;51.302;7.744;2023-03-26T00:20:46;83401.59;;;-146.98;100.00
28432;BME280;15664;51.302;7.744;2023-03-26T00:23:11;83450.47;;;-146.98;100.00
28432;BME280;15664;51.302;7.744;2023-03-26T00:25:38;83444.34;;;-146.98;100.00
28432;BME280;15664;51.302;7.744;2023-03-26T00:28:06;83474.91;;;-146.98;100.00
28432;BME280;15664;51.302;7.744;2023-03-26T00:30:32;83426.03;;;-146.98;100.00
28432;BME280;15664;51.302;7.744;2023-03-26T00:33:01;83452.50;;;-146.98;100.00
28432;BME280;15664;51.302;7.744;2023-03-26T00:35:27;83405.66;;;-146.98;100.00
28432;BME280;15664;51.302;7.744;2023-03-26T00:37:54;83434.19;;;-146.98;100.00
28432;BME280;15664;51.302;7.744;2023-03-26T00:40:20;83452.50;;;-146.98;100.00
28432;BME280;15664;51.302;7.744;2023-03-26T00:42:46;83444.34;;;-146.98;100.00
28432;BME280;15664;51.302;7.744;2023-03-26T00:45:11;83458.63;;;-146.98;100.00
28432;BME280;15664;51.302;7.744;2023-03-26T00:47:37;83428.06;;;-146.98;100.00
28432;BME280;15664;51.302;7.744;2023-03-26T00:50:05;83426.03;;;-146.98;100.00
28432;BME280;15664;51.302;7.744;2023-03-26T00:52:31;83391.41;;;-146.98;100.00
28432;BME280;15664;51.302;7.744;2023-03-26T00:54:57;83393.44;;;-146.98;100.00
28432;BME280;15664;51.302;7.744;2023-03-26T00:57:22;83430.09;;;-146.98;100.00
28432;BME280;15664;51.302;7.744;2023-03-26T00:59:54;83405.66;;;-146.98;100.00
28432;BME280;15664;51.302;7.744;2023-03-26T01:02:19;83415.84;;;-146.98;100.00
28432;BME280;15664;51.302;7.744;2023-03-26T01:04:56;83397.53;;;-146.98;100.00
28432;BME280;15664;51.302;7.744;2023-03-26T01:07:25;83409.75;;;-146.98;100.00
28432;BME280;15664;51.302;7.744;2023-03-26T01:09:58;83401.59;;;-146.98;100.00
28432;BME280;15664;51.302;7.744;2023-03-26T01:12:26;83426.03;;;-146.98;100.00
28432;BME280;15664;51.302;7.744;2023-03-26T01:14:58;83450.47;;;-146.98;100.00
28432;BME280;15664;51.302;7.744;2023-03-26T01:17:26;83417.88;;;-146.98;100.00
28432;BME280;15664;51.302;7.744;2023-03-26T01:22:41;83397.53;;;-146.98;100.00
28432;BME280;15664;51.302;7.744;2023-03-26T01:25:08;83426.03;;;-146.98;100.00
28432;BME280;15664;51.302;7.744;2023-03-26T01:27:47;83415.84;;;-146.98;100.00
28432;BME280;15664;51.302;7.744;2023-03-26T01:30:29;83393.44;;;-146.98;100.00
28432;BME280;15664;51.302;7.744;2023-03-26T01:33:03;83430.09;;;-146.98;100.00
28432;BME280;15664;51.302;7.744;2023-03-26T01:35:44;83415.84;;;-146.98;100.00
28432;BME280;15664;51.302;7.744;2023-03-26T01:38:41;83407.69;;;-146.98;100.00
28432;BME280;15664;51.302;7.744;2023-03-26T01:43:58;83324.22;;;-146.98;100.00
28432;BME280;15664;51.302;7.744;2023-03-26T01:46:25;83352.72;;;-146.98;100.00
28432;BME280;15664;51.302;7.744;2023-03-26T01:48:51;83381.22;;;-146.98;100.00
28432;BME280;15664;51.302;7.744;2023-03-26T01:51:29;83373.09;;;-146.98;100.00
28432;BME280;15664;51.302;7.744;2023-03-26T01:53:56;83448.44;;;-146.98;100.00
28432;BME280;15664;51.302;7.744;2023-03-26T01:57:02;83389.38;;;-146.98;100.00
28432;BME280;15664;51.302;7.744;2023-03-26T02:02:16;83379.19;;;-146.98;100.00
28432;BME280;15664;51.302;7.744;2023-03-26T02:05:05;83389.38;;;-146.98;100.00
28432;BME280;15664;51.302;7.744;2023-03-26T02:07:40;83369.00;;;-146.98;100.00
28432;BME280;15664;51.302;7.744;2023-03-26T02:10:14;83391.41;;;-146.98;100.00
28432;BME280;15664;51.302;7.744;2023-03-26T02:12:42;83366.97;;;-146.98;100.00
28432;BME280;15664;51.302;7.744;2023-03-26T02:15:08;83395.47;;;-146.98;100.00
28432;BME280;15664;51.302;7.744;2023-03-26T02:17:34;83397.53;;;-146.98;100.00
28432;BME280;15664;51.302;7.744;2023-03-26T02:20:00;83405.66;;;-146.98;100.00
28432;BME280;15664;51.302;7.744;2023-03-26T02:22:30;83428.06;;;-146.98;100.00
28432;BME280;15664;51.302;7.744;2023-03-26T02:24:57;83387.34;;;-146.98;100.00
28432;BME280;15664;51.302;7.744;2023-03-26T02:27:22;83407.69;;;-146.98;100.00
28432;BME280;15664;51.302;7.744;2023-03-26T02:29:48;83405.66;;;-146.98;100.00
28432;BME280;15664;51.302;7.744;2023-03-26T02:32:17;83405.66;;;-146.98;100.00
28432;BME280;15664;51.302;7.744;2023-03-26T02:34:44;83405.66;;;-146.98;100.00
28432;BME280;15664;51.302;7.744;2023-03-26T02:37:10;83373.09;;;-146.98;100.00
28432;BME280;15664;51.302;7.744;2023-03-26T02:39:37;83373.09;;;-146.98;100.00
28432;BME280;15664;51.302;7.744;2023-03-26T02:42:11;83393.44;;;-146.98;100.00
28432;BME280;15664;51.302;7.744;2023-03-26T02:44:43;83385.31;;;-146.98;100.00
28432;BME280;15664;51.302;7.744;2023-03-26T02:47:29;83389.38;;;-146.98;100.00
28432;BME280;15664;51.302;7.744;2023-03-26T02:50:21;83403.63;;;-146.98;100.00
28432;BME280;15664;51.302;7.744;2023-03-26T02:53:08;83377.16;;;-146.98;100.00
28432;BME280;15664;51.302;7.744;2023-03-26T02:55:37;83426.03;;;-146.98;100.00
28432;BME280;15664;51.302;7.744;2023-03-26T02:58:03;83393.44;;;-146.98;100.00
28432;BME280;15664;51.302;7.744;2023-03-26T03:00:35;83383.25;;;-146.98;100.00
28432;BME280;15664;51.302;7.744;2023-03-26T03:03:23;83385.31;;;-146.98;100.00
28432;BME280;15664;51.302;7.744;2023-03-26T03:05:57;83426.03;;;-146.98;100.00
28432;BME280;15664;51.302;7.744;2023-03-26T03:08:44;83436.22;;;-146.98;100.00
28432;BME280;15664;51.302;7.744;2023-03-26T03:11:25;83371.03;;;-146.98;100.00
28432;BME280;15664;51.302;7.744;2023-03-26T03:13:52;83377.16;;;-146.98;100.00
28432;BME280;15664;51.302;7.744;2023-03-26T03:16:21;83409.75;;;-146.98;100.00
28432;BME280;15664;51.302;7.744;2023-03-26T03:18:47;83426.03;;;-146.98;100.00
28432;BME280;15664;51.302;7.744;2023-03-26T03:21:24;83356.78;;;-146.98;100.00
28432;BME280;15664;51.302;7.744;2023-03-26T03:23:50;83403.63;;;-146.98;100.00
28432;BME280;15664;51.302;7.744;2023-03-26T03:26:18;83409.75;;;-146.98;100.00
28432;BME280;15664;51.302;7.744;2023-03-26T03:28:50;83354.75;;;-146.98;100.00
28432;BME280;15664;51.302;7.744;2023-03-26T03:31:16;83352.72;;;-146.98;100.00
28432;BME280;15664;51.302;7.744;2023-03-26T03:33:42;83354.75;;;-146.98;100.00
28432;BME280;15664;51.302;7.744;2023-03-26T03:36:10;83389.38;;;-146.98;100.00
28432;BME280;15664;51.302;7.744;2023-03-26T03:38:37;83381.22;;;-146.98;100.00
28432;BME280;15664;51.302;7.744;2023-03-26T03:41:05;83391.41;;;-146.98;100.00
28432;BME280;15664;51.302;7.744;2023-03-26T03:43:33;83405.66;;;-146.98;100.00
28432;BME280;15664;51.302;7.744;2023-03-26T03:46:06;83401.59;;;-146.98;100.00
28432;BME280;15664;51.302;7.744;2023-03-26T03:48:43;83421.97;;;-146.98;100.00
28432;BME280;15664;51.302;7.744;2023-03-26T03:51:18;83415.84;;;-146.98;100.00
28432;BME280;15664;51.302;7.744;2023-03-26T03:53:58;83426.03;;;-146.98;100.00
28432;BME280;15664;51.302;7.744;2023-03-26T03:56:46;83442.31;;;-146.98;100.00
28432;BME280;15664;51.302;7.744;2023-03-26T03:59:30;83442.31;;;-146.98;100.00
28432;BME280;15664;51.302;7.744;2023-03-26T04:01:56;83401.59;;;-146.98;100.00
28432;BME280;15664;51.302;7.744;2023-03-26T04:04:29;83432.13;;;-146.98;100.00
28432;BME280;15664;51.302;7.744;2023-03-26T04:06:59;83405.66;;;-146.98;100.00
28432;BME280;15664;51.302;7.744;2023-03-26T04:09:30;83442.31;;;-146.98;100.00
28432;BME280;15664;51.302;7.744;2023-03-26T04:11:59;83320.13;;;-146.98;100.00
28432;BME280;15664;51.302;7.744;2023-03-26T04:14:36;83442.31;;;-146.98;100.00
28432;BME280;15664;51.302;7.744;2023-03-26T04:17:06;83383.25;;;-146.98;100.00
28432;BME280;15664;51.302;7.744;2023-03-26T04:19:35;83487.13;;;-146.98;100.00
28432;BME280;15664;51.302;7.744;2023-03-26T04:22:06;83409.75;;;-146.98;100.00
28432;BME280;15664;51.302;7.744;2023-03-26T04:24:37;83430.09;;;-146.98;100.00
28432;BME280;15664;51.302;7.744;2023-03-26T04:27:11;83428.06;;;-146.98;100.00
28432;BME280;15664;51.302;7.744;2023-03-26T04:29:41;83450.47;;;-146.98;100.00
28432;BME280;15664;51.302;7.744;2023-03-26T04:32:20;83430.09;;;-146.98;100.00
28432;BME280;15664;51.302;7.744;2023-03-26T04:34:47;83434.19;;;-146.98;100.00
28432;BME280;15664;51.302;7.744;2023-03-26T04:37:21;83397.53;;;-146.98;100.00
28432;BME280;15664;51.302;7.744;2023-03-26T04:40:02;83419.91;;;-146.98;100.00
28432;BME280;15664;51.302;7.744;2023-03-26T04:42:49;83448.44;;;-146.98;100.00
28432;BME280;15664;51.302;7.744;2023-03-26T04:45:23;83348.66;;;-146.98;100.00
28432;BME280;15664;51.302;7.744;2023-03-26T04:47:56;83364.94;;;-146.98;100.00
28432;BME280;15664;51.302;7.744;2023-03-26T04:50:22;83409.75;;;-146.98;100.00
28432;BME280;15664;51.302;7.744;2023-03-26T04:52:48;83426.03;;;-146.98;100.00
28432;BME280;15664;51.302;7.744;2023-03-26T04:55:44;83381.22;;;-146.98;100.00
28432;BME280;15664;51.302;7.744;2023-03-26T04:58:18;83371.03;;;-146.98;100.00
28432;BME280;15664;51.302;7.744;2023-03-26T05:00:52;83348.66;;;-146.98;100.00
28432;BME280;15664;51.302;7.744;2023-03-26T05:03:17;83381.22;;;-146.98;100.00
28432;BME280;15664;51.302;7.744;2023-03-26T05:05:46;83373.09;;;-146.98;100.00
28432;BME280;15664;51.302;7.744;2023-03-26T05:08:13;83373.09;;;-146.98;100.00
28432;BME280;15664;51.302;7.744;2023-03-26T05:10:39;83381.22;;;-146.98;100.00
28432;BME280;15664;51.302;7.744;2023-03-26T05:13:11;83379.19;;;-146.98;100.00
28432;BME280;15664;51.302;7.744;2023-03-26T05:15:41;83411.78;;;-146.98;100.00
28432;BME280;15664;51.302;7.744;2023-03-26T05:18:31;83417.88;;;-146.98;100.00
28432;BME280;15664;51.302;7.744;2023-03-26T05:20:58;83401.59;;;-146.98;100.00
28432;BME280;15664;51.302;7.744;2023-03-26T05:23:24;83397.53;;;-146.98;100.00
28432;BME280;15664;51.302;7.744;2023-03-26T05:26:05;83417.88;;;-146.98;100.00
28432;BME280;15664;51.302;7.744;2023-03-26T05:28:32;83446.41;;;-146.98;100.00
28432;BME280;15664;51.302;7.744;2023-03-26T05:31:04;83358.81;;;-146.98;100.00
28432;BME280;15664;51.302;7.744;2023-03-26T05:33:34;83448.44;;;-146.98;100.00
28432;BME280;15664;51.302;7.744;2023-03-26T05:36:07;83401.59;;;-146.98;100.00
28432;BME280;15664;51.302;7.744;2023-03-26T05:38:34;83377.16;;;-146.98;100.00
28432;BME280;15664;51.302;7.744;2023-03-26T05:41:04;83417.88;;;-146.98;100.00
28432;BME280;15664;51.302;7.744;2023-03-26T05:43:32;83379.19;;;-146.98;100.00
28432;BME280;15664;51.302;7.744;2023-03-26T05:46:05;83399.56;;;-146.98;100.00
28432;BME280;15664;51.302;7.744;2023-03-26T05:48:31;83405.66;;;-146.98;100.00
28432;BME280;15664;51.302;7.744;2023-03-26T05:50:57;83389.38;;;-146.98;100.00
28432;BME280;15664;51.302;7.744;2023-03-26T05:53:26;83421.97;;;-146.98;100.00
28432;BME280;15664;51.302;7.744;2023-03-26T05:56:29;83419.91;;;-146.98;100.00
28432;BME280;15664;51.302;7.744;2023-03-26T05:59:14;83362.91;;;-146.98;100.00
28432;BME280;15664;51.302;7.744;2023-03-26T06:02:00;83409.75;;;-146.98;100.00
28432;BME280;15664;51.302;7.744;2023-03-26T06:04:31;83399.56;;;-146.98;100.00
28432;BME280;15664;51.302;7.744;2023-03-26T06:07:17;83411.78;;;-146.98;100.00
28432;BME280;15664;51.302;7.744;2023-03-26T06:09:54;83352.72;;;-146.98;100.00
28432;BME280;15664;51.302;7.744;2023-03-26T06:12:20;83421.97;;;-146.98;100.00
28432;BME280;15664;51.302;7.744;2023-03-26T06:14:46;83375.13;;;-146.98;100.00
28432;BME280;15664;51.302;7.744;2023-03-26T06:17:17;83373.09;;;-146.98;100.00
28432;BME280;15664;51.302;7.744;2023-03-26T06:20:20;83385.31;;;-146.98;100.00
28432;BME280;15664;51.302;7.744;2023-03-26T06:22:48;83389.38;;;-146.98;100.00
28432;BME280;15664;51.302;7.744;2023-03-26T06:25:19;83366.97;;;-146.98;100.00
28432;BME280;15664;51.302;7.744;2023-03-26T06:28:04;83350.69;;;-146.98;100.00
28432;BME280;15664;51.302;7.744;2023-03-26T06:30:52;83426.03;;;-146.98;100.00
28432;BME280;15664;51.302;7.744;2023-03-26T06:33:32;83379.19;;;-146.98;100.00
28432;BME280;15664;51.302;7.744;2023-03-26T06:35:58;83373.09;;;-146.98;100.00
28432;BME280;15664;51.302;7.744;2023-03-26T06:38:24;83373.09;;;-146.98;100.00
28432;BME280;15664;51.302;7.744;2023-03-26T06:40:50;83409.75;;;-146.98;100.00
28432;BME280;15664;51.302;7.744;2023-03-26T06:43:24;83364.94;;;-146.98;100.00
28432;BME280;15664;51.302;7.744;2023-03-26T06:45:52;83369.00;;;-146.98;100.00
28432;BME280;15664;51.302;7.744;2023-03-26T06:48:38;83381.22;;;-146.98;100.00
28432;BME280;15664;51.302;7.744;2023-03-26T06:51:24;83362.91;;;-146.98;100.00
28432;BME280;15664;51.302;7.744;2023-03-26T06:54:07;83391.41;;;-146.98;100.00
28432;BME280;15664;51.302;7.744;2023-03-26T06:56:47;83389.38;;;-146.98;100.00
28432;BME280;15664;51.302;7.744;2023-03-26T06:59:51;83383.25;;;-146.98;100.00
28432;BME280;15664;51.302;7.744;2023-03-26T07:02:35;83421.97;;;-146.98;100.00
28432;BME280;15664;51.302;7.744;2023-03-26T07:05:19;83379.19;;;-146.98;100.00
28432;BME280;15664;51.302;7.744;2023-03-26T07:08:04;83377.16;;;-146.98;100.00
28432;BME280;15664;51.302;7.744;2023-03-26T07:10:48;83436.22;;;-146.98;100.00
28432;BME280;15664;51.302;7.744;2023-03-26T07:13:48;83373.09;;;-146.98;100.00
28432;BME280;15664;51.302;7.744;2023-03-26T07:16:32;83395.47;;;-146.98;100.00
28432;BME280;15664;51.302;7.744;2023-03-26T07:19:16;83340.50;;;-146.98;100.00
28432;BME280;15664;51.302;7.744;2023-03-26T07:21:42;83342.53;;;-146.98;100.00
28432;BME280;15664;51.302;7.744;2023-03-26T07:24:44;83330.31;;;-146.98;100.00
28432;BME280;15664;51.302;7.744;2023-03-26T07:27:51;83364.94;;;-146.98;100.00
28432;BME280;15664;51.302;7.744;2023-03-26T07:30:47;83316.06;;;-146.98;100.00
28432;BME280;15664;51.302;7.744;2023-03-26T07:36:56;83340.50;;;-146.98;100.00
28432;BME280;15664;51.302;7.744;2023-03-26T07:39:52;83283.47;;;-146.98;100.00
28432;BME280;15664;51.302;7.744;2023-03-26T07:45:38;83299.75;;;-146.98;100.00
28432;BME280;15664;51.302;7.744;2023-03-26T07:48:24;83309.94;;;-146.98;100.00
28432;BME280;15664;51.302;7.744;2023-03-26T07:51:15;83303.84;;;-146.98;100.00
28432;BME280;15664;51.302;7.744;2023-03-26T07:53:53;83328.28;;;-146.98;100.00
28432;BME280;15664;51.302;7.744;2023-03-26T07:59:44;83348.66;;;-146.98;100.00
28432;BME280;15664;51.302;7.744;2023-03-26T08:02:51;83326.25;;;-146.98;100.00
28432;BME280;15664;51.302;7.744;2023-03-26T08:05:58;83348.66;;;-146.98;100.00
28432;BME280;15664;51.302;7.744;2023-03-26T08:08:47;83334.38;;;-146.98;100.00
28432;BME280;15664;51.302;7.744;2023-03-26T08:14:41;83316.06;;;-146.98;100.00
28432;BME280;15664;51.302;7.744;2023-03-26T08:22:54;83336.41;;;-146.98;100.00
28432;BME280;15664;51.302;7.744;2023-03-26T08:28:30;83275.31;;;-146.98;100.00
28432;BME280;15664;51.302;7.744;2023-03-26T08:30:59;83309.94;;;-146.98;100.00
28432;BME280;15664;51.302;7.744;2023-03-26T08:33:27;83307.91;;;-146.98;100.00
28432;BME280;15664;51.302;7.744;2023-03-26T08:35:53;83301.81;;;-146.98;100.00
28432;BME280;15664;51.302;7.744;2023-03-26T08:38:19;83324.22;;;-146.98;100.00
28432;BME280;15664;51.302;7.744;2023-03-26T08:46:26;83320.13;;;-146.98;100.00
28432;BME280;15664;51.302;7.744;2023-03-26T08:51:41;83358.81;;;-146.98;100.00
28432;BME280;15664;51.302;7.744;2023-03-26T08:54:45;83318.09;;;-146.98;100.00
28432;BME280;15664;51.302;7.744;2023-03-26T09:03:03;83297.72;;;-146.98;100.00
28432;BME280;15664;51.302;7.744;2023-03-26T09:06:09;83352.72;;;-146.98;100.00
28432;BME280;15664;51.302;7.744;2023-03-26T09:09:04;83307.91;;;-146.98;100.00
28432;BME280;15664;51.302;7.744;2023-03-26T09:11:55;83303.84;;;-146.98;100.00
28432;BME280;15664;51.302;7.744;2023-03-26T09:23:57;83297.72;;;-146.98;100.00
28432;BME280;15664;51.302;7.744;2023-03-26T09:30:09;83291.63;;;-146.98;100.00
28432;BME280;15664;51.302;7.744;2023-03-26T09:35:23;83344.56;;;-146.98;100.00
28432;BME280;15664;51.302;7.744;2023-03-26T09:38:00;83330.31;;;-146.98;100.00
28432;BME280;15664;51.302;7.744;2023-03-26T09:40:42;83340.50;;;-146.98;100.00
28432;BME280;15664;51.302;7.744;2023-03-26T09:49:05;83356.78;;;-146.98;100.00
28432;BME280;15664;51.302;7.744;2023-03-26T09:52:09;83326.25;;;-146.98;100.00
28432;BME280;15664;51.302;7.744;2023-03-26T10:00:27;83303.84;;;-146.98;100.00
28432;BME280;15664;51.302;7.744;2023-03-26T10:05:44;83309.94;;;-146.98;100.00
28432;BME280;15664;51.302;7.744;2023-03-26T10:08:33;83360.88;;;-146.98;100.00
28432;BME280;15664;51.302;7.744;2023-03-26T10:13:59;83356.78;;;-146.98;100.00
28432;BME280;15664;51.302;7.744;2023-03-26T10:16:47;83332.34;;;-146.98;100.00
28432;BME280;15664;51.302;7.744;2023-03-26T10:22:26;83322.16;;;-146.98;100.00
28432;BME280;15664;51.302;7.744;2023-03-26T10:25:27;83399.56;;;-146.98;100.00
28432;BME280;15664;51.302;7.744;2023-03-26T10:28:08;83328.28;;;-146.98;100.00
28432;BME280;15664;51.302;7.744;2023-03-26T10:33:48;83377.16;;;-146.98;100.00
28432;BME280;15664;51.302;7.744;2023-03-26T10:36:29;83352.72;;;-146.98;100.00
28432;BME280;15664;51.302;7.744;2023-03-26T10:39:19;83352.72;;;-146.98;100.00
28432;BME280;15664;51.302;7.744;2023-03-26T10:44:54;83387.34;;;-146.98;100.00
28432;BME280;15664;51.302;7.744;2023-03-26T10:50:02;83385.31;;;-146.98;100.00
28432;BME280;15664;51.302;7.744;2023-03-26T10:52:48;83426.03;;;-146.98;100.00
28432;BME280;15664;51.302;7.744;2023-03-26T10:55:20;83364.94;;;-146.98;100.00
28432;BME280;15664;51.302;7.744;2023-03-26T11:00:23;83430.09;;;-146.98;100.00
28432;BME280;15664;51.302;7.744;2023-03-26T11:03:07;83409.75;;;-146.98;100.00
28432;BME280;15664;51.302;7.744;2023-03-26T11:11:30;83395.47;;;-146.98;100.00
28432;BME280;15664;51.302;7.744;2023-03-26T11:14:09;83330.31;;;-146.98;100.00
28432;BME280;15664;51.302;7.744;2023-03-26T11:20:00;83381.22;;;-146.98;100.00
28432;BME280;15664;51.302;7.744;2023-03-26T11:25:28;83389.38;;;-146.98;100.00
28432;BME280;15664;51.302;7.744;2023-03-26T11:28:09;83383.25;;;-146.98;100.00
28432;BME280;15664;51.302;7.744;2023-03-26T11:33:51;83362.91;;;-146.98;100.00
28432;BME280;15664;51.302;7.744;2023-03-26T11:36:23;83399.56;;;-146.98;100.00
28432;BME280;15664;51.302;7.744;2023-03-26T11:38:54;83397.53;;;-146.98;100.00
28432;BME280;15664;51.302;7.744;2023-03-26T11:41:28;83397.53;;;-146.98;100.00
28432;BME280;15664;51.302;7.744;2023-03-26T11:44:20;83405.66;;;-146.98;100.00
28432;BME280;15664;51.302;7.744;2023-03-26T11:46:51;83362.91;;;-146.98;100.00
28432;BME280;15664;51.302;7.744;2023-03-26T11:49:24;83428.06;;;-146.98;100.00
28432;BME280;15664;51.302;7.744;2023-03-26T11:51:50;83385.31;;;-146.98;100.00
28432;BME280;15664;51.302;7.744;2023-03-26T11:54:16;83424.00;;;-146.98;100.00
28432;BME280;15664;51.302;7.744;2023-03-26T11:56:52;83478.97;;;-146.98;100.00
28432;BME280;15664;51.302;7.744;2023-03-26T11:59:27;83426.03;;;-146.98;100.00
28432;BME280;15664;51.302;7.744;2023-03-26T12:01:57;83381.22;;;-146.98;100.00
28432;BME280;15664;51.302;7.744;2023-03-26T12:04:33;83421.97;;;-146.98;100.00
28432;BME280;15664;51.302;7.744;2023-03-26T12:07:29;83421.97;;;-146.98;100.00
28432;BME280;15664;51.302;7.744;2023-03-26T12:12:25;83434.19;;;-146.98;100.00
28432;BME280;15664;51.302;7.744;2023-03-26T12:14:51;83483.06;;;-146.98;100.00
28432;BME280;15664;51.302;7.744;2023-03-26T12:17:36;83434.19;;;-146.98;100.00
28432;BME280;15664;51.302;7.744;2023-03-26T12:22:47;83438.25;;;-146.98;100.00
28432;BME280;15664;51.302;7.744;2023-03-26T12:25:19;83426.03;;;-146.98;100.00
28432;BME280;15664;51.302;7.744;2023-03-26T12:30:36;83434.19;;;-146.98;100.00
28432;BME280;15664;51.302;7.744;2023-03-26T12:33:09;83444.34;;;-146.98;100.00
28432;BME280;15664;51.302;7.744;2023-03-26T12:35:39;83442.31;;;-146.98;100.00
28432;BME280;15664;51.302;7.744;2023-03-26T12:41:17;83464.72;;;-146.98;100.00
28432;BME280;15664;51.302;7.744;2023-03-26T12:43:47;83426.03;;;-146.98;100.00
28432;BME280;15664;51.302;7.744;2023-03-26T12:48:53;83381.22;;;-146.98;100.00
28432;BME280;15664;51.302;7.744;2023-03-26T12:56:44;83344.56;;;-146.98;100.00
28432;BME280;15664;51.302;7.744;2023-03-26T12:59:26;83352.72;;;-146.98;100.00
28432;BME280;15664;51.302;7.744;2023-03-26T13:02:08;83426.03;;;-146.98;100.00
28432;BME280;15664;51.302;7.744;2023-03-26T13:05:16;83397.53;;;-146.98;100.00
28432;BME280;15664;51.302;7.744;2023-03-26T13:08:03;83364.94;;;-146.98;100.00
28432;BME280;15664;51.302;7.744;2023-03-26T13:10:38;83352.72;;;-146.98;100.00
28432;BME280;15664;51.302;7.744;2023-03-26T13:15:46;83320.13;;;-146.98;100.00
28432;BME280;15664;51.302;7.744;2023-03-26T13:21:10;83332.34;;;-146.98;100.00
28432;BME280;15664;51.302;7.744;2023-03-26T13:23:49;83352.72;;;-146.98;100.00
28432;BME280;15664;51.302;7.744;2023-03-26T13:26:33;83336.41;;;-146.98;100.00
28432;BME280;15664;51.302;7.744;2023-03-26T13:29:11;83358.81;;;-146.98;100.00
28432;BME280;15664;51.302;7.744;2023-03-26T13:34:42;83356.78;;;-146.98;100.00
28432;BME280;15664;51.302;7.744;2023-03-26T13:37:35;83307.91;;;-146.98;100.00
28432;BME280;15664;51.302;7.744;2023-03-26T13:40:25;83393.44;;;-146.98;100.00
28432;BME280;15664;51.302;7.744;2023-03-26T13:46:13;83387.34;;;-146.98;100.00
28432;BME280;15664;51.302;7.744;2023-03-26T13:51:20;83324.22;;;-146.98;100.00
28432;BME280;15664;51.302;7.744;2023-03-26T13:54:19;83348.66;;;-146.98;100.00
28432;BME280;15664;51.302;7.744;2023-03-26T13:57:08;83332.34;;;-146.98;100.00
28432;BME280;15664;51.302;7.744;2023-03-26T13:59:46;83340.50;;;-146.98;100.00
28432;BME280;15664;51.302;7.744;2023-03-26T14:02:22;83328.28;;;-146.98;100.00
28432;BME280;15664;51.302;7.744;2023-03-26T14:04:53;83401.59;;;-146.98;100.00
28432;BME280;15664;51.302;7.744;2023-03-26T14:07:33;83316.06;;;-146.98;100.00
28432;BME280;15664;51.302;7.744;2023-03-26T14:10:07;83385.31;;;-146.98;100.00
28432;BME280;15664;51.302;7.744;2023-03-26T14:23:51;83328.28;;;-146.98;100.00
28432;BME280;15664;51.302;7.744;2023-03-26T14:29:27;83291.63;;;-146.98;100.00
28432;BME280;15664;51.302;7.744;2023-03-26T14:45:51;83389.38;;;-146.98;100.00
28432;BME280;15664;51.302;7.744;2023-03-26T14:51:25;83401.59;;;-146.98;100.00
28432;BME280;15664;51.302;7.744;2023-03-26T14:54:02;83326.25;;;-146.98;100.00
28432;BME280;15664;51.302;7.744;2023-03-26T14:56:44;83328.28;;;-146.98;100.00
28432;BME280;15664;51.302;7.744;2023-03-26T15:08:49;83326.25;;;-146.98;100.00
28432;BME280;15664;51.302;7.744;2023-03-26T15:11:26;83314.03;;;-146.98;100.00
28432;BME280;15664;51.302;7.744;2023-03-26T15:30:43;83377.16;;;-146.98;100.00
28432;BME280;15664;51.302;7.744;2023-03-26T15:36:18;83395.47;;;-146.98;100.00
28432;BME280;15664;51.302;7.744;2023-03-26T15:42:29;83409.75;;;-146.98;100.00
28432;BME280;15664;51.302;7.744;2023-03-26T15:56:23;83483.06;;;-146.98;100.00
28432;BME280;15664;51.302;7.744;2023-03-26T15:58:59;83389.38;;;-146.98;100.00
28432;BME280;15664;51.302;7.744;2023-03-26T16:01:53;83452.50;;;-146.98;100.00
28432;BME280;15664;51.302;7.744;2023-03-26T16:04:42;83450.47;;;-146.98;100.00
28432;BME280;15664;51.302;7.744;2023-03-26T16:15:37;83462.69;;;-146.98;100.00
28432;BME280;15664;51.302;7.744;2023-03-26T16:20:50;83434.19;;;-146.98;100.00
28432;BME280;15664;51.302;7.744;2023-03-26T16:26:15;83436.22;;;-146.98;100.00
28432;BME280;15664;51.302;7.744;2023-03-26T16:36:37;83442.31;;;-146.98;100.00
28432;BME280;15664;51.302;7.744;2023-03-26T16:41:51;83470.84;;;-146.98;100.00
28432;BME280;15664;51.302;7.744;2023-03-26T16:44:34;83507.50;;;-146.98;100.00
28432;BME280;15664;51.302;7.744;2023-03-26T16:47:20;83483.06;;;-146.98;100.00
28432;BME280;15664;51.302;7.744;2023-03-26T16:52:34;83466.75;;;-146.98;100.00
28432;BME280;15664;51.302;7.744;2023-03-26T17:01:23;83491.19;;;-146.98;100.00
28432;BME280;15664;51.302;7.744;2023-03-26T17:03:53;83517.69;;;-146.98;100.00
28432;BME280;15664;51.302;7.744;2023-03-26T17:06:28;83487.13;;;-146.98;100.00
28432;BME280;15664;51.302;7.744;2023-03-26T17:09:05;83489.16;;;-146.98;100.00
28432;BME280;15664;51.302;7.744;2023-03-26T17:28:53;83485.09;;;-146.98;100.00
28432;BME280;15664;51.302;7.744;2023-03-26T17:31:39;83472.88;;;-146.98;100.00
28432;BME280;15664;51.302;7.744;2023-03-26T17:47:38;83529.91;;;-146.98;100.00
28432;BME280;15664;51.302;7.744;2023-03-26T17:50:26;83552.31;;;-146.98;100.00
28432;BME280;15664;51.302;7.744;2023-03-26T17:53:02;83515.63;;;-146.98;100.00